createdAt,value
2023-06-04T00:00:13.792Z,3245.00
2023-06-04T00:01:16.599Z,3255.00
2023-06-04T00:02:13.911Z,3261.00
2023-06-04T00:03:14.020Z,3279.00
2023-06-04T00:04:13.957Z,3267.00
2023-06-04T00:05:13.986Z,3290.00
2023-06-04T00:06:14.006Z,3330.00
2023-06-04T00:07:14.070Z,3344.00
2023-06-04T00:08:14.072Z,3369.00
2023-06-04T00:09:14.095Z,3389.00
2023-06-04T00:10:14.103Z,3410.00
2023-06-04T00:11:14.188Z,3436.00
2023-06-04T00:12:14.160Z,3465.00
2023-06-04T00:13:14.208Z,3473.00
2023-06-04T00:14:14.227Z,3450.00
2023-06-04T00:15:14.242Z,3444.00
2023-06-04T00:16:14.319Z,3423.00
2023-06-04T00:17:14.310Z,3407.00
2023-06-04T00:18:14.364Z,3409.00
2023-06-04T00:19:14.367Z,3402.00
2023-06-04T00:20:14.383Z,3391.00
2023-06-04T00:21:14.413Z,3393.00
2023-06-04T00:22:14.452Z,3381.00
2023-06-04T00:23:14.473Z,3396.00
2023-06-04T00:24:14.521Z,3401.00
2023-06-04T00:25:14.492Z,3403.00
2023-06-04T00:26:14.521Z,3420.00
2023-06-04T00:27:14.554Z,3423.00
2023-06-04T00:28:14.604Z,3428.00
2023-06-04T00:29:14.607Z,3436.00
2023-06-04T00:30:14.626Z,3450.00
2023-06-04T00:31:14.724Z,3448.00
2023-06-04T00:32:14.806Z,3470.00
2023-06-04T00:33:14.781Z,3481.00
2023-06-04T00:34:14.737Z,3462.00
2023-06-04T00:35:14.755Z,3446.00
2023-06-04T00:36:14.786Z,3429.00
2023-06-04T00:37:14.838Z,3385.00
2023-06-04T00:38:14.842Z,3366.00
2023-06-04T00:39:14.847Z,3377.00
2023-06-04T00:40:14.888Z,3374.00
2023-06-04T00:41:14.896Z,3368.00
2023-06-04T00:42:14.940Z,3364.00
2023-06-04T00:43:14.976Z,3364.00
2023-06-04T00:44:14.983Z,3362.00
2023-06-04T00:45:15.036Z,3386.00
2023-06-04T00:46:15.173Z,3387.00
2023-06-04T00:47:15.222Z,3377.00
2023-06-04T00:48:15.328Z,3349.00
2023-06-04T00:49:15.391Z,3336.00
2023-06-04T00:50:15.502Z,3351.00
2023-06-04T00:51:15.588Z,3348.00
2023-06-04T00:52:15.695Z,3368.00
2023-06-04T00:53:15.734Z,3374.00
2023-06-04T00:54:15.852Z,3378.00
2023-06-04T00:55:15.940Z,3382.00
2023-06-04T00:56:15.995Z,3383.00
2023-06-04T00:57:16.080Z,3362.00
2023-06-04T00:58:16.123Z,3360.00
2023-06-04T00:59:16.233Z,3316.00
2023-06-04T01:00:16.291Z,3304.00
2023-06-04T01:01:16.441Z,3278.00
2023-06-04T01:02:16.446Z,3288.00
2023-06-04T01:03:16.552Z,3248.00
2023-06-04T01:04:16.570Z,3215.00
2023-06-04T01:05:16.643Z,3212.00
2023-06-04T01:06:16.695Z,3200.00
2023-06-04T01:07:16.753Z,3162.00
2023-06-04T01:08:16.801Z,3150.00
2023-06-04T01:09:16.857Z,3120.00
2023-06-04T01:10:16.931Z,3097.00
2023-06-04T01:11:16.965Z,3059.00
2023-06-04T01:12:17.009Z,3053.00
2023-06-04T01:13:17.048Z,3053.00
2023-06-04T01:14:17.136Z,3035.00
2023-06-04T01:15:17.202Z,3014.00
2023-06-04T01:16:17.234Z,3007.00
2023-06-04T01:17:17.400Z,2992.00
2023-06-04T01:18:17.355Z,2945.00
2023-06-04T01:19:17.475Z,2918.00
2023-06-04T01:20:17.545Z,2919.00
2023-06-04T01:21:17.643Z,2882.00
2023-06-04T01:22:17.763Z,2869.00
2023-06-04T01:23:17.820Z,2883.00
2023-06-04T01:24:17.919Z,2863.00
2023-06-04T01:25:17.971Z,2819.00
2023-06-04T01:26:18.087Z,2819.00
2023-06-04T01:27:18.126Z,2801.00
2023-06-04T01:28:18.268Z,2780.00
2023-06-04T01:29:18.239Z,2787.00
2023-06-04T01:30:18.273Z,2757.00
2023-06-04T01:31:18.342Z,2745.00
2023-06-04T01:32:18.718Z,2730.00
2023-06-04T01:33:18.404Z,2720.00
2023-06-04T01:34:18.477Z,2725.00
2023-06-04T01:35:18.524Z,2699.00
2023-06-04T01:36:18.533Z,2705.00
2023-06-04T01:37:18.558Z,2693.00
2023-06-04T01:38:18.608Z,2676.00
2023-06-04T01:39:18.648Z,2661.00
2023-06-04T01:40:18.694Z,2665.00
2023-06-04T01:41:18.748Z,2619.00
2023-06-04T01:42:18.803Z,2627.00
2023-06-04T01:43:18.832Z,2600.00
2023-06-04T01:44:18.876Z,2608.00
2023-06-04T01:45:18.930Z,2581.00
2023-06-04T01:46:18.999Z,2590.00
2023-06-04T01:47:19.004Z,2602.00
2023-06-04T01:48:19.053Z,2596.00
2023-06-04T01:49:19.119Z,2624.00
2023-06-04T01:50:19.158Z,2631.00
2023-06-04T01:51:19.208Z,2658.00
2023-06-04T01:52:19.247Z,2649.00
2023-06-04T01:53:19.287Z,2639.00
2023-06-04T01:54:19.313Z,2662.00
2023-06-04T01:55:19.350Z,2649.00
2023-06-04T01:56:19.394Z,2679.00
2023-06-04T01:57:19.476Z,2694.00
2023-06-04T01:58:19.525Z,2721.00
2023-06-04T01:59:19.537Z,2743.00
2023-06-04T02:00:19.569Z,2762.00
2023-06-04T02:01:19.656Z,2768.00
2023-06-04T02:02:19.745Z,2808.00
2023-06-04T02:03:19.888Z,2816.00
2023-06-04T02:04:19.907Z,2846.00
2023-06-04T02:05:19.949Z,2865.00
2023-06-04T02:06:20.054Z,2886.00
2023-06-04T02:07:20.101Z,2879.00
2023-06-04T02:08:20.269Z,2860.00
2023-06-04T02:09:20.275Z,2864.00
2023-06-04T02:10:20.388Z,2830.00
2023-06-04T02:11:20.468Z,2800.00
2023-06-04T02:12:20.549Z,2773.00
2023-06-04T02:13:20.662Z,2749.00
2023-06-04T02:14:20.744Z,2747.00
2023-06-04T02:15:20.818Z,2714.00
2023-06-04T02:16:20.888Z,2709.00
2023-06-04T02:17:20.911Z,2709.00
2023-06-04T02:18:20.967Z,2718.00
2023-06-04T02:19:21.014Z,2736.00
2023-06-04T02:20:21.073Z,2726.00
2023-06-04T02:21:21.113Z,2716.00
2023-06-04T02:22:21.166Z,2727.00
2023-06-04T02:23:21.241Z,2726.00
2023-06-04T02:24:21.209Z,2707.00
2023-06-04T02:25:21.261Z,2717.00
2023-06-04T02:26:21.329Z,2718.00
2023-06-04T02:27:21.320Z,2728.00
2023-06-04T02:28:21.362Z,2689.00
2023-06-04T02:29:21.375Z,2660.00
2023-06-04T02:30:21.423Z,2677.00
2023-06-04T02:31:21.497Z,2664.00
2023-06-04T02:32:21.586Z,2641.00
2023-06-04T02:33:21.552Z,2617.00
2023-06-04T02:34:21.597Z,2596.00
2023-06-04T02:35:21.636Z,2586.00
2023-06-04T02:36:21.677Z,2588.00
2023-06-04T02:37:21.714Z,2544.00
2023-06-04T02:38:21.779Z,2566.00
2023-06-04T02:39:21.922Z,2616.00
2023-06-04T02:40:21.879Z,2648.00
2023-06-04T02:41:21.930Z,2641.00
2023-06-04T02:42:21.982Z,2631.00
2023-06-04T02:43:22.021Z,2606.00
2023-06-04T02:44:22.066Z,2571.00
2023-06-04T02:45:22.124Z,2554.00
2023-06-04T02:46:22.207Z,2563.00
2023-06-04T02:47:22.204Z,2573.00
2023-06-04T02:48:22.279Z,2546.00
2023-06-04T02:49:22.304Z,2526.00
2023-06-04T02:50:22.360Z,2532.00
2023-06-04T02:51:22.427Z,2513.00
2023-06-04T02:52:22.445Z,2503.00
2023-06-04T02:53:22.518Z,2502.00
2023-06-04T02:54:22.590Z,2487.00
2023-06-04T02:55:22.635Z,2471.00
2023-06-04T02:56:22.671Z,2458.00
2023-06-04T02:57:22.723Z,2442.00
2023-06-04T02:58:22.791Z,2410.00
2023-06-04T02:59:22.872Z,2403.00
2023-06-04T03:00:22.889Z,2402.00
2023-06-04T03:01:22.991Z,2385.00
2023-06-04T03:02:23.073Z,2359.00
2023-06-04T03:03:23.187Z,2364.00
2023-06-04T03:04:23.161Z,2356.00
2023-06-04T03:05:23.227Z,2352.00
2023-06-04T03:06:23.296Z,2325.00
2023-06-04T03:07:23.341Z,2334.00
2023-06-04T03:08:23.477Z,2312.00
2023-06-04T03:09:23.498Z,2291.00
2023-06-04T03:10:23.561Z,2277.00
2023-06-04T03:11:23.623Z,2270.00
2023-06-04T03:12:23.688Z,2207.00
2023-06-04T03:13:23.780Z,2180.00
2023-06-04T03:14:23.800Z,2175.00
2023-06-04T03:15:23.895Z,2166.00
2023-06-04T03:16:24.010Z,2142.00
2023-06-04T03:17:24.039Z,2128.00
2023-06-04T03:18:24.088Z,2099.00
2023-06-04T03:19:24.167Z,2119.00
2023-06-04T03:20:24.191Z,2153.00
2023-06-04T03:21:24.320Z,2157.00
2023-06-04T03:22:24.332Z,2144.00
2023-06-04T03:23:24.383Z,2119.00
2023-06-04T03:24:24.423Z,2116.00
2023-06-04T03:25:24.464Z,2108.00
2023-06-04T03:26:24.583Z,2122.00
2023-06-04T03:27:24.608Z,2155.00
2023-06-04T03:28:24.686Z,2157.00
2023-06-04T03:29:24.758Z,2174.00
2023-06-04T03:30:24.824Z,2193.00
2023-06-04T03:31:24.888Z,2236.00
2023-06-04T03:32:24.980Z,2252.00
2023-06-04T03:33:24.985Z,2222.00
2023-06-04T03:34:25.034Z,2226.00
2023-06-04T03:35:25.101Z,2213.00
2023-06-04T03:36:25.160Z,2207.00
2023-06-04T03:37:25.236Z,2224.00
2023-06-04T03:38:25.250Z,2222.00
2023-06-04T03:39:25.335Z,2227.00
2023-06-04T03:40:26.308Z,2224.00
2023-06-04T03:41:25.435Z,2233.00
2023-06-04T03:42:25.487Z,2214.00
2023-06-04T03:43:25.563Z,2240.00
2023-06-04T03:44:25.597Z,2249.00
2023-06-04T03:45:25.657Z,2236.00
2023-06-04T03:46:25.768Z,2210.00
2023-06-04T03:47:25.789Z,2203.00
2023-06-04T03:48:25.842Z,2211.00
2023-06-04T03:49:25.882Z,2200.00
2023-06-04T03:50:25.946Z,2229.00
2023-06-04T03:51:26.002Z,2227.00
2023-06-04T03:52:26.093Z,2259.00
2023-06-04T03:53:26.165Z,2238.00
2023-06-04T03:54:26.201Z,2259.00
2023-06-04T03:55:26.288Z,2284.00
2023-06-04T03:56:26.338Z,2278.00
2023-06-04T03:57:26.397Z,2295.00
2023-06-04T03:58:26.437Z,2304.00
2023-06-04T03:59:26.501Z,2302.00
2023-06-04T04:00:26.562Z,2313.00
2023-06-04T04:01:26.630Z,2315.00
2023-06-04T04:02:26.816Z,2314.00
2023-06-04T04:03:26.907Z,2294.00
2023-06-04T04:04:26.899Z,2262.00
2023-06-04T04:05:26.839Z,2273.00
2023-06-04T04:06:26.853Z,2261.00
2023-06-04T04:07:26.935Z,2234.00
2023-06-04T04:08:26.984Z,2242.00
2023-06-04T04:09:27.021Z,2253.00
2023-06-04T04:10:27.089Z,2277.00
2023-06-04T04:11:27.117Z,2312.00
2023-06-04T04:12:27.257Z,2343.00
2023-06-04T04:13:27.258Z,2351.00
2023-06-04T04:14:27.258Z,2336.00
2023-06-04T04:15:27.322Z,2317.00
2023-06-04T04:16:27.412Z,2333.00
2023-06-04T04:17:27.466Z,2301.00
2023-06-04T04:18:27.487Z,2307.00
2023-06-04T04:19:27.546Z,2304.00
2023-06-04T04:20:27.557Z,2347.00
2023-06-04T04:21:27.637Z,2328.00
2023-06-04T04:22:27.655Z,2338.00
2023-06-04T04:23:27.756Z,2350.00
2023-06-04T04:24:27.795Z,2374.00
2023-06-04T04:25:27.840Z,2364.00
2023-06-04T04:26:27.906Z,2357.00
2023-06-04T04:27:27.945Z,2355.00
2023-06-04T04:28:28.032Z,2351.00
2023-06-04T04:29:28.058Z,2340.00
2023-06-04T04:30:28.082Z,2355.00
2023-06-04T04:31:28.203Z,2318.00
2023-06-04T04:32:28.235Z,2292.00
2023-06-04T04:33:28.304Z,2293.00
2023-06-04T04:34:28.399Z,2301.00
2023-06-04T04:35:28.468Z,2291.00
2023-06-04T04:36:28.558Z,2284.00
2023-06-04T04:37:28.640Z,2285.00
2023-06-04T04:38:28.726Z,2283.00
2023-06-04T04:39:28.846Z,2298.00
2023-06-04T04:40:28.918Z,2309.00
2023-06-04T04:41:29.043Z,2282.00
2023-06-04T04:42:29.142Z,2286.00
2023-06-04T04:43:29.188Z,2280.00
2023-06-04T04:44:29.289Z,2268.00
2023-06-04T04:45:29.340Z,2244.00
2023-06-04T04:46:29.490Z,2234.00
2023-06-04T04:47:29.432Z,2262.00
2023-06-04T04:48:29.477Z,2267.00
2023-06-04T04:49:29.591Z,2270.00
2023-06-04T04:50:29.559Z,2302.00
2023-06-04T04:51:29.614Z,2265.00
2023-06-04T04:52:29.649Z,2275.00
2023-06-04T04:53:29.713Z,2263.00
2023-06-04T04:54:29.742Z,2263.00
2023-06-04T04:55:29.796Z,2211.00
2023-06-04T04:56:29.821Z,2202.00
2023-06-04T04:57:29.877Z,2203.00
2023-06-04T04:58:29.907Z,2203.00
2023-06-04T04:59:29.964Z,2222.00
2023-06-04T05:00:29.992Z,2179.00
2023-06-04T05:01:30.072Z,2166.00
2023-06-04T05:02:30.118Z,2170.00
2023-06-04T05:03:30.127Z,2163.00
2023-06-04T05:04:30.226Z,2153.00
2023-06-04T05:05:30.248Z,2159.00
2023-06-04T05:06:30.259Z,2135.00
2023-06-04T05:07:30.331Z,2148.00
2023-06-04T05:08:30.348Z,2151.00
2023-06-04T05:09:30.414Z,2132.00
2023-06-04T05:10:30.474Z,2117.00
2023-06-04T05:11:30.506Z,2097.00
2023-06-04T05:12:30.543Z,2082.00
2023-06-04T05:13:30.598Z,2101.00
2023-06-04T05:14:30.648Z,2083.00
2023-06-04T05:15:30.739Z,2060.00
2023-06-04T05:16:30.778Z,2070.00
2023-06-04T05:17:30.896Z,2062.00
2023-06-04T05:18:30.846Z,2079.00
2023-06-04T05:19:30.869Z,2082.00
2023-06-04T05:20:30.945Z,2064.00
2023-06-04T05:21:30.996Z,2099.00
2023-06-04T05:22:31.044Z,2114.00
2023-06-04T05:23:31.089Z,2067.00
2023-06-04T05:24:31.099Z,2021.00
2023-06-04T05:25:31.188Z,2009.00
2023-06-04T05:26:31.220Z,2020.00
2023-06-04T05:27:31.241Z,2022.00
2023-06-04T05:28:31.311Z,1988.00
2023-06-04T05:29:31.359Z,1976.00
2023-06-04T05:30:31.390Z,1962.00
2023-06-04T05:31:31.489Z,1962.00
2023-06-04T05:32:31.553Z,1953.00
2023-06-04T05:33:31.569Z,1934.00
2023-06-04T05:34:31.638Z,1886.00
2023-06-04T05:35:31.653Z,1880.00
2023-06-04T05:36:31.742Z,1846.00
2023-06-04T05:37:31.792Z,1824.00
2023-06-04T05:38:31.902Z,1817.00
2023-06-04T05:39:31.914Z,1863.00
2023-06-04T05:40:31.950Z,1838.00
2023-06-04T05:41:32.017Z,1822.00
2023-06-04T05:42:32.040Z,1806.00
2023-06-04T05:43:32.117Z,1803.00
2023-06-04T05:44:32.162Z,1821.00
2023-06-04T05:45:32.220Z,1791.00
2023-06-04T05:46:32.391Z,1797.00
2023-06-04T05:47:32.415Z,1823.00
2023-06-04T05:48:32.444Z,1838.00
2023-06-04T05:49:32.497Z,1823.00
2023-06-04T05:50:32.541Z,1823.00
2023-06-04T05:51:32.614Z,1850.00
2023-06-04T05:52:32.648Z,1830.00
2023-06-04T05:53:32.715Z,1851.00
2023-06-04T05:54:33.363Z,1830.00
2023-06-04T05:55:32.821Z,1822.00
2023-06-04T05:56:32.886Z,1798.00
2023-06-04T05:57:32.906Z,1784.00
2023-06-04T05:58:32.966Z,1789.00
2023-06-04T05:59:33.043Z,1802.00
2023-06-04T06:00:33.101Z,1806.00
2023-06-04T06:01:33.172Z,1780.00
2023-06-04T06:02:33.333Z,1781.00
2023-06-04T06:03:33.324Z,1792.00
2023-06-04T06:04:33.391Z,1787.00
2023-06-04T06:05:33.354Z,1788.00
2023-06-04T06:06:33.421Z,1781.00
2023-06-04T06:07:33.560Z,1795.00
2023-06-04T06:08:33.552Z,1802.00
2023-06-04T06:09:33.579Z,1786.00
2023-06-04T06:10:33.613Z,1767.00
2023-06-04T06:11:33.683Z,1779.00
2023-06-04T06:12:33.740Z,1798.00
2023-06-04T06:13:33.779Z,1774.00
2023-06-04T06:14:33.839Z,1791.00
2023-06-04T06:15:33.926Z,1805.00
2023-06-04T06:16:33.937Z,1766.00
2023-06-04T06:17:34.073Z,1745.00
2023-06-04T06:18:34.124Z,1769.00
2023-06-04T06:19:34.120Z,1775.00
2023-06-04T06:20:34.188Z,1769.00
2023-06-04T06:21:34.274Z,1755.00
2023-06-04T06:22:34.292Z,1749.00
2023-06-04T06:23:34.377Z,1761.00
2023-06-04T06:24:34.435Z,1755.00
2023-06-04T06:25:34.474Z,1725.00
2023-06-04T06:26:34.546Z,1721.00
2023-06-04T06:27:34.599Z,1739.00
2023-06-04T06:28:34.657Z,1708.00
2023-06-04T06:29:34.708Z,1730.00
2023-06-04T06:30:34.794Z,1746.00
2023-06-04T06:31:34.915Z,1752.00
2023-06-04T06:32:34.955Z,1752.00
2023-06-04T06:33:34.969Z,1774.00
2023-06-04T06:34:35.018Z,1756.00
2023-06-04T06:35:35.073Z,1751.00
2023-06-04T06:36:35.149Z,1760.00
2023-06-04T06:37:35.185Z,1723.00
2023-06-04T06:38:35.232Z,1722.00
2023-06-04T06:39:35.278Z,1704.00
2023-06-04T06:40:35.302Z,1708.00
2023-06-04T06:41:35.361Z,1686.00
2023-06-04T06:42:35.427Z,1660.00
2023-06-04T06:43:35.463Z,1675.00
2023-06-04T06:44:35.510Z,1652.00
2023-06-04T06:45:37.871Z,1604.00
2023-06-04T06:46:35.673Z,1592.00
2023-06-04T06:47:35.646Z,1571.00
2023-06-04T06:48:35.719Z,1581.00
2023-06-04T06:49:35.773Z,1592.00
2023-06-04T06:50:35.823Z,1590.00
2023-06-04T06:51:35.892Z,1577.00
2023-06-04T06:52:35.972Z,1639.00
2023-06-04T06:53:36.002Z,1632.00
2023-06-04T06:54:36.057Z,1606.00
2023-06-04T06:55:36.120Z,1577.00
2023-06-04T06:56:36.146Z,1568.00
2023-06-04T06:57:36.197Z,1526.00
2023-06-04T06:58:36.222Z,1519.00
2023-06-04T06:59:36.260Z,1464.00
2023-06-04T07:00:36.372Z,1468.00
2023-06-04T07:01:36.522Z,1494.00
2023-06-04T07:02:36.488Z,1492.00
2023-06-04T07:03:36.473Z,1498.00
2023-06-04T07:04:36.467Z,1526.00
2023-06-04T07:05:36.511Z,1526.00
2023-06-04T07:06:36.530Z,1496.00
2023-06-04T07:07:36.607Z,1471.00
2023-06-04T07:08:36.624Z,1511.00
2023-06-04T07:09:36.681Z,1510.00
2023-06-04T07:10:36.735Z,1509.00
2023-06-04T07:11:36.761Z,1501.00
2023-06-04T07:12:36.815Z,1497.00
2023-06-04T07:13:36.866Z,1508.00
2023-06-04T07:14:36.922Z,1565.00
2023-06-04T07:15:36.934Z,1609.00
2023-06-04T07:16:37.033Z,1673.00
2023-06-04T07:17:37.133Z,1701.00
2023-06-04T07:18:37.110Z,1705.00
2023-06-04T07:19:37.197Z,1720.00
2023-06-04T07:20:37.284Z,1734.00
2023-06-04T07:21:37.369Z,1735.00
2023-06-04T07:22:37.429Z,1760.00
2023-06-04T07:23:37.548Z,1675.00
2023-06-04T07:24:37.597Z,1655.00
2023-06-04T07:25:37.690Z,1617.00
2023-06-04T07:26:37.779Z,1602.00
2023-06-04T07:27:37.884Z,1612.00
2023-06-04T07:28:37.943Z,1642.00
2023-06-04T07:29:38.063Z,1688.00
2023-06-04T07:30:38.161Z,1750.00
2023-06-04T07:31:38.249Z,1776.00
2023-06-04T07:32:38.383Z,1755.00
2023-06-04T07:33:38.389Z,1712.00
2023-06-04T07:34:38.477Z,1676.00
2023-06-04T07:35:38.572Z,1649.00
2023-06-04T07:36:39.399Z,1677.00
2023-06-04T07:37:38.708Z,1725.00
2023-06-04T07:38:38.821Z,1739.00
2023-06-04T07:39:38.873Z,1762.00
2023-06-04T07:40:38.946Z,1790.00
2023-06-04T07:41:39.065Z,1791.00
2023-06-04T07:42:39.115Z,1831.00
2023-06-04T07:43:39.205Z,1862.00
2023-06-04T07:44:39.320Z,1881.00
2023-06-04T07:45:39.385Z,1898.00
2023-06-04T07:46:39.674Z,1933.00
2023-06-04T07:47:39.680Z,1939.00
2023-06-04T07:48:39.623Z,1970.00
2023-06-04T07:49:44.592Z,1960.00
2023-06-04T07:50:41.638Z,1961.00
2023-06-04T07:51:39.770Z,1933.00
2023-06-04T07:52:39.781Z,1900.00
2023-06-04T07:53:39.851Z,1898.00
2023-06-04T07:54:39.864Z,1910.00
2023-06-04T07:55:39.862Z,1900.00
2023-06-04T07:56:39.917Z,1870.00
2023-06-04T07:57:39.952Z,1874.00
2023-06-04T07:58:39.981Z,1894.00
2023-06-04T07:59:39.993Z,1907.00
2023-06-04T08:00:40.071Z,1932.00
2023-06-04T08:01:40.111Z,1924.00
2023-06-04T08:02:40.298Z,1941.00
2023-06-04T08:03:40.420Z,1940.00
2023-06-04T08:04:40.425Z,1933.00
2023-06-04T08:05:40.408Z,1891.00
2023-06-04T08:06:40.451Z,1785.00
2023-06-04T08:07:40.534Z,1714.00
2023-06-04T08:08:40.632Z,1569.00
2023-06-04T08:09:40.704Z,1509.00
2023-06-04T08:10:40.767Z,1454.00
2023-06-04T08:11:40.852Z,1433.00
2023-06-04T08:12:40.922Z,1464.00
2023-06-04T08:13:40.967Z,1527.00
2023-06-04T08:14:41.060Z,1603.00
2023-06-04T08:15:41.141Z,1652.00
2023-06-04T08:16:41.251Z,1690.00
2023-06-04T08:17:41.358Z,1719.00
2023-06-04T08:18:41.456Z,1761.00
2023-06-04T08:19:41.437Z,1803.00
2023-06-04T08:20:41.507Z,1824.00
2023-06-04T08:21:41.548Z,1767.00
2023-06-04T08:22:41.644Z,1663.00
2023-06-04T08:23:41.778Z,1569.00
2023-06-04T08:24:41.801Z,1485.00
2023-06-04T08:25:41.868Z,1494.00
2023-06-04T08:26:41.955Z,1527.00
2023-06-04T08:27:42.003Z,1547.00
2023-06-04T08:28:42.111Z,1573.00
2023-06-04T08:29:42.164Z,1586.00
2023-06-04T08:30:42.199Z,1626.00
2023-06-04T08:31:42.354Z,1650.00
2023-06-04T08:32:42.407Z,1645.00
2023-06-04T08:33:42.377Z,1652.00
2023-06-04T08:34:42.405Z,1686.00
2023-06-04T08:35:42.456Z,1686.00
2023-06-04T08:36:42.486Z,1569.00
2023-06-04T08:37:42.563Z,1354.00
2023-06-04T08:38:43.107Z,1262.00
2023-06-04T08:39:42.628Z,1248.00
2023-06-04T08:40:42.683Z,1115.00
2023-06-04T08:41:42.755Z,1040.00
2023-06-04T08:42:42.818Z,1050.00
2023-06-04T08:43:42.812Z,969.00
2023-06-04T08:44:42.880Z,899.00
2023-06-04T08:45:43.008Z,850.00
2023-06-04T08:46:43.025Z,822.00
2023-06-04T08:47:43.123Z,764.00
2023-06-04T08:48:43.158Z,772.00
2023-06-04T08:49:43.258Z,823.00
2023-06-04T08:50:43.306Z,885.00
2023-06-04T08:51:43.359Z,927.00
2023-06-04T08:52:43.429Z,986.00
2023-06-04T08:53:43.542Z,1015.00
2023-06-04T08:54:43.601Z,1059.00
2023-06-04T08:55:43.674Z,1090.00
2023-06-04T08:56:43.714Z,1131.00
2023-06-04T08:57:43.804Z,1138.00
2023-06-04T08:58:43.850Z,1092.00
2023-06-04T08:59:43.900Z,1076.00
2023-06-04T09:00:43.971Z,1110.00
2023-06-04T09:01:44.092Z,1126.00
2023-06-04T09:02:44.161Z,1155.00
2023-06-04T09:03:44.176Z,1173.00
2023-06-04T09:04:44.209Z,1176.00
2023-06-04T09:05:44.295Z,1202.00
2023-06-04T09:06:44.370Z,1290.00
2023-06-04T09:07:44.404Z,1317.00
2023-06-04T09:08:48.728Z,1107.00
2023-06-04T09:09:45.570Z,1020.00
2023-06-04T09:10:44.476Z,980.00
2023-06-04T09:11:44.497Z,966.00
2023-06-04T09:12:44.540Z,1002.00
2023-06-04T09:13:44.547Z,1038.00
2023-06-04T09:14:44.573Z,1102.00
2023-06-04T09:15:44.648Z,1159.00
2023-06-04T09:16:44.605Z,1165.00
2023-06-04T09:17:44.722Z,1213.00
2023-06-04T09:18:44.675Z,1255.00
2023-06-04T09:19:44.685Z,1321.00
2023-06-04T09:20:44.704Z,1369.00
2023-06-04T09:21:44.740Z,1405.00
2023-06-04T09:22:44.767Z,1451.00
2023-06-04T09:23:44.775Z,1487.00
2023-06-04T09:24:44.795Z,1484.00
2023-06-04T09:25:44.810Z,1512.00
2023-06-04T09:26:44.806Z,1550.00
2023-06-04T09:27:44.843Z,1553.00
2023-06-04T09:28:44.852Z,1577.00
2023-06-04T09:29:44.899Z,1612.00
2023-06-04T09:30:44.907Z,1618.00
2023-06-04T09:31:45.174Z,1673.00
2023-06-04T09:32:45.040Z,1680.00
2023-06-04T09:33:45.064Z,1716.00
2023-06-04T09:34:45.098Z,1688.00
2023-06-04T09:35:45.136Z,1696.00
2023-06-04T09:36:45.231Z,1696.00
2023-06-04T09:37:45.257Z,1661.00
2023-06-04T09:38:45.285Z,1700.00
2023-06-04T09:39:45.318Z,1711.00
2023-06-04T09:40:45.352Z,1696.00
2023-06-04T09:41:45.427Z,1604.00
2023-06-04T09:42:45.436Z,1577.00
2023-06-04T09:43:45.468Z,1606.00
2023-06-04T09:44:45.547Z,1585.00
2023-06-04T09:45:45.560Z,1574.00
2023-06-04T09:46:45.688Z,1542.00
2023-06-04T09:47:45.739Z,1506.00
2023-06-04T09:48:45.645Z,1537.00
2023-06-04T09:49:45.706Z,1574.00
2023-06-04T09:50:45.763Z,1597.00
2023-06-04T09:51:45.766Z,1627.00
2023-06-04T09:52:45.805Z,1643.00
2023-06-04T09:53:45.808Z,1658.00
2023-06-04T09:54:45.873Z,1668.00
2023-06-04T09:55:45.897Z,1707.00
2023-06-04T09:56:45.938Z,1716.00
2023-06-04T09:57:45.985Z,1728.00
2023-06-04T09:58:46.023Z,1750.00
2023-06-04T09:59:46.053Z,1763.00
2023-06-04T10:00:46.200Z,1756.00
2023-06-04T10:01:46.148Z,1702.00
2023-06-04T10:02:46.220Z,1280.00
2023-06-04T10:03:46.211Z,1061.00
2023-06-04T10:04:46.217Z,964.00
2023-06-04T10:05:46.249Z,947.00
2023-06-04T10:06:46.279Z,1033.00
2023-06-04T10:07:46.308Z,1195.00
2023-06-04T10:08:46.373Z,1297.00
2023-06-04T10:09:46.390Z,1375.00
2023-06-04T10:10:46.434Z,1482.00
2023-06-04T10:11:46.487Z,1518.00
2023-06-04T10:12:46.514Z,1568.00
2023-06-04T10:13:46.570Z,1614.00
2023-06-04T10:14:46.576Z,1665.00
2023-06-04T10:15:46.579Z,1720.00
2023-06-04T10:16:46.675Z,1731.00
2023-06-04T10:17:46.679Z,1754.00
2023-06-04T10:18:46.690Z,1779.00
2023-06-04T10:19:46.701Z,1754.00
2023-06-04T10:20:46.761Z,1745.00
2023-06-04T10:21:46.779Z,1725.00
2023-06-04T10:22:46.829Z,1745.00
2023-06-04T10:23:46.884Z,1777.00
2023-06-04T10:24:46.886Z,1885.00
2023-06-04T10:25:46.893Z,1922.00
2023-06-04T10:26:46.908Z,1965.00
2023-06-04T10:27:46.968Z,1937.00
2023-06-04T10:28:46.968Z,1896.00
2023-06-04T10:29:47.018Z,1967.00
2023-06-04T10:30:47.031Z,1951.00
2023-06-04T10:31:47.085Z,1982.00
2023-06-04T10:32:47.107Z,1986.00
2023-06-04T10:33:47.080Z,1989.00
2023-06-04T10:34:47.121Z,2010.00
2023-06-04T10:35:47.154Z,2015.00
2023-06-04T10:36:47.208Z,1984.00
2023-06-04T10:37:47.211Z,1985.00
2023-06-04T10:38:47.303Z,1993.00
2023-06-04T10:39:47.353Z,1967.00
2023-06-04T10:40:47.433Z,1964.00
2023-06-04T10:41:48.002Z,1979.00
2023-06-04T10:42:47.528Z,2024.00
2023-06-04T10:43:47.521Z,2023.00
2023-06-04T10:44:47.555Z,2055.00
2023-06-04T10:45:47.599Z,2039.00
2023-06-04T10:46:47.591Z,2039.00
2023-06-04T10:47:47.709Z,2062.00
2023-06-04T10:48:47.661Z,2078.00
2023-06-04T10:49:47.690Z,2058.00
2023-06-04T10:50:47.704Z,2059.00
2023-06-04T10:51:47.749Z,2098.00
2023-06-04T10:52:47.775Z,2113.00
2023-06-04T10:53:47.763Z,2104.00
2023-06-04T10:54:47.804Z,2092.00
2023-06-04T10:55:47.816Z,2086.00
2023-06-04T10:56:47.858Z,2053.00
2023-06-04T10:57:47.870Z,2070.00
2023-06-04T10:58:47.910Z,2095.00
2023-06-04T10:59:47.887Z,2101.00
2023-06-04T11:00:47.920Z,2096.00
2023-06-04T11:01:47.974Z,2112.00
2023-06-04T11:02:48.026Z,2043.00
2023-06-04T11:03:48.014Z,1949.00
2023-06-04T11:04:47.994Z,1995.00
2023-06-04T11:05:48.052Z,2012.00
2023-06-04T11:06:48.048Z,2024.00
2023-06-04T11:07:48.095Z,2031.00
2023-06-04T11:08:48.091Z,2053.00
2023-06-04T11:09:48.145Z,2047.00
2023-06-04T11:10:48.131Z,2036.00
2023-06-04T11:11:48.206Z,2051.00
2023-06-04T11:12:48.266Z,2074.00
2023-06-04T11:13:48.197Z,2075.00
2023-06-04T11:14:48.253Z,2034.00
2023-06-04T11:15:48.319Z,2022.00
2023-06-04T11:16:48.307Z,2067.00
2023-06-04T11:17:48.358Z,2031.00
2023-06-04T11:18:48.333Z,1969.00
2023-06-04T11:19:48.368Z,1968.00
2023-06-04T11:20:48.398Z,1997.00
2023-06-04T11:21:48.419Z,1960.00
2023-06-04T11:22:48.472Z,1923.00
2023-06-04T11:23:48.512Z,1868.00
2023-06-04T11:24:48.479Z,1783.00
2023-06-04T11:25:48.513Z,1673.00
2023-06-04T11:27:00.331Z,1595.00
2023-06-04T11:27:49.549Z,1560.00
2023-06-04T11:28:48.550Z,1595.00
2023-06-04T11:29:48.597Z,1602.00
2023-06-04T11:30:48.586Z,1624.00
2023-06-04T11:31:48.639Z,1671.00
2023-06-04T11:32:48.661Z,1712.00
2023-06-04T11:33:48.651Z,1690.00
2023-06-04T11:34:48.632Z,1649.00
2023-06-04T11:35:48.685Z,1623.00
2023-06-04T11:36:48.714Z,1690.00
2023-06-04T11:37:48.692Z,1730.00
2023-06-04T11:38:48.721Z,1701.00
2023-06-04T11:39:48.729Z,1546.00
2023-06-04T11:40:48.747Z,1255.00
2023-06-04T11:41:48.764Z,1097.00
2023-06-04T11:42:48.855Z,962.00
2023-06-04T11:43:48.762Z,986.00
2023-06-04T11:44:48.795Z,1100.00
2023-06-04T11:45:48.821Z,1179.00
2023-06-04T11:46:48.843Z,1217.00
2023-06-04T11:47:48.926Z,1273.00
2023-06-04T11:48:48.925Z,1320.00
2023-06-04T11:49:48.837Z,1351.00
2023-06-04T11:50:48.868Z,1279.00
2023-06-04T11:51:48.893Z,1189.00
2023-06-04T11:52:48.935Z,1140.00
2023-06-04T11:53:48.929Z,890.00
2023-06-04T11:54:48.925Z,741.00
2023-06-04T11:55:48.949Z,686.00
2023-06-04T11:56:48.967Z,707.00
2023-06-04T11:57:48.958Z,737.00
2023-06-04T11:58:48.985Z,741.00
2023-06-04T11:59:49.016Z,785.00
2023-06-04T12:00:49.048Z,861.00
2023-06-04T12:01:49.061Z,901.00
2023-06-04T12:02:49.136Z,908.00
2023-06-04T12:03:49.075Z,903.00
2023-06-04T12:04:49.083Z,919.00
2023-06-04T12:05:49.091Z,967.00
2023-06-04T12:06:49.123Z,997.00